createdAt,value
2023-01-18T00:00:15.734Z,19.69
2023-01-18T00:01:16.399Z,19.66
2023-01-18T00:02:17.055Z,19.69
2023-01-18T00:03:17.651Z,19.56
2023-01-18T00:04:18.256Z,19.58
2023-01-18T00:05:18.856Z,19.58
2023-01-18T00:06:19.458Z,19.56
2023-01-18T00:07:20.050Z,19.54
2023-01-18T00:08:20.654Z,19.45
2023-01-18T00:09:21.250Z,19.51
2023-01-18T00:10:21.856Z,19.44
2023-01-18T00:11:22.454Z,19.47
2023-01-18T00:12:23.212Z,19.45
2023-01-18T00:13:23.799Z,19.44
2023-01-18T00:14:24.451Z,19.45
2023-01-18T00:15:25.047Z,19.45
2023-01-18T00:16:25.704Z,19.39
2023-01-18T00:17:26.322Z,19.37
2023-01-18T00:18:26.926Z,19.31
2023-01-18T00:19:28.368Z,19.37
2023-01-18T00:20:28.973Z,19.34
2023-01-18T00:21:29.568Z,19.29
2023-01-18T00:22:30.172Z,19.27
2023-01-18T00:23:30.772Z,19.31
2023-01-18T00:24:31.373Z,19.30
2023-01-18T00:25:31.982Z,19.29
2023-01-18T00:26:32.577Z,19.21
2023-01-18T00:27:33.173Z,19.24
2023-01-18T00:28:33.778Z,19.18
2023-01-18T00:29:34.445Z,19.29
2023-01-18T00:30:35.900Z,19.24
2023-01-18T00:31:36.665Z,19.14
2023-01-18T00:32:37.253Z,19.16
2023-01-18T00:33:37.906Z,19.18
2023-01-18T00:34:38.647Z,19.18
2023-01-18T00:35:39.243Z,19.18
2023-01-18T00:36:39.846Z,19.09
2023-01-18T00:37:40.445Z,19.15
2023-01-18T00:38:41.042Z,19.04
2023-01-18T00:39:41.632Z,19.07
2023-01-18T00:40:42.236Z,19.02
2023-01-18T00:41:42.833Z,18.98
2023-01-18T00:42:43.438Z,18.98
2023-01-18T00:43:44.152Z,19.00
2023-01-18T00:44:44.755Z,18.99
2023-01-18T00:45:45.367Z,19.00
2023-01-18T00:46:46.016Z,18.89
2023-01-18T00:47:47.455Z,18.96
2023-01-18T00:48:48.071Z,18.90
2023-01-18T00:49:48.655Z,18.95
2023-01-18T00:50:49.323Z,18.89
2023-01-18T00:51:49.920Z,18.95
2023-01-18T00:52:50.525Z,18.88
2023-01-18T00:53:51.116Z,18.81
2023-01-18T00:54:51.720Z,18.83
2023-01-18T00:55:52.315Z,18.84
2023-01-18T00:56:52.922Z,18.83
2023-01-18T00:57:53.528Z,18.78
2023-01-18T00:58:54.188Z,18.77
2023-01-18T00:59:54.783Z,18.80
2023-01-18T01:00:55.546Z,18.74
2023-01-18T01:01:56.379Z,18.77
2023-01-18T01:02:57.522Z,18.70
2023-01-18T01:03:57.741Z,18.78
2023-01-18T01:04:58.342Z,18.71
2023-01-18T01:05:58.930Z,18.74
2023-01-18T01:06:59.535Z,18.71
2023-01-18T01:08:00.137Z,18.73
2023-01-18T01:09:00.734Z,18.63
2023-01-18T01:10:01.329Z,18.62
2023-01-18T01:11:01.933Z,18.66
2023-01-18T01:12:02.537Z,18.62
2023-01-18T01:13:03.197Z,18.62
2023-01-18T01:14:03.793Z,18.59
2023-01-18T01:15:04.398Z,18.63
2023-01-18T01:16:04.996Z,18.59
2023-01-18T01:17:05.663Z,18.68
2023-01-18T01:18:06.256Z,18.68
2023-01-18T01:19:06.860Z,18.66
2023-01-18T01:20:07.455Z,18.55
2023-01-18T01:21:08.061Z,18.56
2023-01-18T01:22:08.655Z,18.55
2023-01-18T01:23:09.268Z,18.62
2023-01-18T01:24:09.860Z,18.56
2023-01-18T01:25:10.463Z,18.53
2023-01-18T01:26:11.116Z,18.55
2023-01-18T01:27:11.720Z,18.60
2023-01-18T01:28:12.318Z,18.59
2023-01-18T01:29:12.921Z,18.52
2023-01-18T01:30:13.517Z,18.66
2023-01-18T01:31:14.133Z,18.45
2023-01-18T01:32:14.714Z,18.50
2023-01-18T01:33:15.317Z,18.59
2023-01-18T01:34:15.909Z,18.58
2023-01-18T01:35:17.363Z,18.53
2023-01-18T01:36:18.107Z,18.53
2023-01-18T01:37:18.756Z,18.56
2023-01-18T01:38:19.354Z,18.49
2023-01-18T01:39:20.022Z,18.44
2023-01-18T01:40:20.613Z,18.45
2023-01-18T01:41:21.218Z,18.44
2023-01-18T01:42:22.612Z,18.45
2023-01-18T01:43:23.214Z,18.44
2023-01-18T01:44:24.671Z,18.52
2023-01-18T01:45:25.261Z,18.41
2023-01-18T01:46:25.882Z,18.50
2023-01-18T01:47:26.639Z,18.44
2023-01-18T01:48:27.233Z,18.40
2023-01-18T01:49:27.888Z,18.40
2023-01-18T01:50:28.552Z,18.45
2023-01-18T01:51:29.154Z,18.40
2023-01-18T01:52:29.749Z,18.44
2023-01-18T01:53:30.351Z,18.43
2023-01-18T01:54:30.947Z,18.41
2023-01-18T01:55:31.552Z,18.43
2023-01-18T01:56:32.229Z,18.45
2023-01-18T01:57:32.838Z,18.41
2023-01-18T01:58:33.573Z,18.44
2023-01-18T01:59:34.178Z,18.44
2023-01-18T02:00:34.839Z,18.40
2023-01-18T02:01:35.554Z,18.40
2023-01-18T02:02:36.297Z,18.35
2023-01-18T02:03:36.914Z,18.38
2023-01-18T02:04:37.506Z,18.37
2023-01-18T02:05:38.110Z,18.34
2023-01-18T02:06:38.703Z,18.33
2023-01-18T02:07:39.305Z,18.33
2023-01-18T02:08:39.901Z,18.28
2023-01-18T02:09:40.501Z,18.35
2023-01-18T02:10:41.094Z,18.33
2023-01-18T02:11:41.718Z,18.25
2023-01-18T02:12:42.360Z,18.26
2023-01-18T02:13:42.960Z,18.31
2023-01-18T02:14:43.555Z,18.28
2023-01-18T02:15:44.159Z,18.22
2023-01-18T02:16:44.766Z,18.23
2023-01-18T02:17:45.367Z,18.23
2023-01-18T02:18:45.961Z,18.23
2023-01-18T02:19:46.561Z,18.26
2023-01-18T02:20:47.155Z,18.25
2023-01-18T02:21:47.756Z,18.23
2023-01-18T02:22:48.369Z,18.23
2023-01-18T02:23:49.009Z,18.20
2023-01-18T02:24:49.605Z,18.19
2023-01-18T02:25:50.234Z,18.23
2023-01-18T02:26:50.863Z,18.28
2023-01-18T02:27:51.479Z,18.23
2023-01-18T02:28:52.073Z,18.22
2023-01-18T02:29:52.685Z,18.22
2023-01-18T02:30:53.332Z,18.19
2023-01-18T02:31:53.922Z,18.15
2023-01-18T02:32:54.951Z,18.22
2023-01-18T02:33:55.745Z,18.25
2023-01-18T02:34:56.338Z,18.22
2023-01-18T02:35:56.961Z,18.23
2023-01-18T02:36:57.555Z,18.13
2023-01-18T02:37:58.155Z,18.20
2023-01-18T02:38:58.748Z,18.13
2023-01-18T02:39:59.352Z,18.11
2023-01-18T02:40:59.947Z,18.20
2023-01-18T02:42:01.401Z,18.22
2023-01-18T02:43:02.045Z,18.11
2023-01-18T02:44:02.807Z,18.13
2023-01-18T02:45:03.402Z,18.23
2023-01-18T02:46:04.101Z,18.23
2023-01-18T02:47:04.723Z,18.19
2023-01-18T02:48:05.319Z,18.16
2023-01-18T02:49:05.925Z,18.11
2023-01-18T02:50:06.590Z,18.25
2023-01-18T02:51:07.202Z,18.19
2023-01-18T02:52:07.789Z,18.05
2023-01-18T02:53:08.395Z,18.07
2023-01-18T02:54:08.980Z,18.11
2023-01-18T02:55:09.588Z,18.11
2023-01-18T02:56:10.232Z,18.10
2023-01-18T02:57:10.830Z,18.07
2023-01-18T02:58:11.430Z,18.13
2023-01-18T02:59:12.028Z,18.11
2023-01-18T03:00:12.623Z,18.04
2023-01-18T03:01:13.359Z,18.05
2023-01-18T03:02:14.061Z,18.03
2023-01-18T03:03:14.720Z,18.07
2023-01-18T03:04:16.166Z,18.01
2023-01-18T03:05:16.769Z,18.15
2023-01-18T03:06:17.359Z,18.00
2023-01-18T03:07:18.026Z,18.01
2023-01-18T03:08:18.618Z,18.10
2023-01-18T03:09:19.231Z,17.97
2023-01-18T03:10:19.816Z,18.05
2023-01-18T03:11:20.419Z,18.01
2023-01-18T03:12:21.023Z,17.98
2023-01-18T03:13:21.615Z,18.01
2023-01-18T03:14:22.207Z,18.00
2023-01-18T03:15:22.807Z,18.00
2023-01-18T03:16:23.399Z,17.92
2023-01-18T03:17:24.002Z,18.01
2023-01-18T03:18:24.596Z,18.01
2023-01-18T03:19:25.201Z,18.05
2023-01-18T03:20:25.830Z,18.13
2023-01-18T03:21:26.422Z,18.00
2023-01-18T03:22:27.014Z,18.03
2023-01-18T03:23:27.617Z,17.95
2023-01-18T03:24:28.210Z,17.98
2023-01-18T03:25:28.852Z,17.98
2023-01-18T03:26:29.458Z,17.95
2023-01-18T03:27:30.042Z,18.00
2023-01-18T03:28:30.636Z,17.95
2023-01-18T03:29:31.245Z,17.98
2023-01-18T03:30:31.834Z,18.03
2023-01-18T03:31:32.438Z,17.97
2023-01-18T03:32:33.033Z,17.98
2023-01-18T03:33:33.633Z,18.03
2023-01-18T03:34:34.230Z,17.92
2023-01-18T03:35:34.831Z,18.01
2023-01-18T03:36:35.430Z,18.04
2023-01-18T03:37:36.030Z,18.04
2023-01-18T03:38:36.630Z,18.00
2023-01-18T03:39:37.238Z,17.97
2023-01-18T03:40:37.825Z,17.98
2023-01-18T03:41:38.430Z,17.95
2023-01-18T03:42:39.172Z,18.00
2023-01-18T03:43:39.777Z,18.00
2023-01-18T03:44:40.367Z,17.97
2023-01-18T03:45:40.966Z,17.98
2023-01-18T03:46:41.615Z,17.98
2023-01-18T03:47:42.218Z,17.94
2023-01-18T03:48:42.804Z,17.97
2023-01-18T03:49:43.406Z,18.01
2023-01-18T03:50:44.045Z,17.95
2023-01-18T03:51:44.648Z,17.90
2023-01-18T03:52:45.242Z,18.04
2023-01-18T03:53:45.844Z,17.98
2023-01-18T03:54:46.439Z,17.97
2023-01-18T03:55:47.045Z,18.01
2023-01-18T03:56:47.638Z,17.92
2023-01-18T03:57:48.238Z,17.97
2023-01-18T03:58:48.832Z,17.92
2023-01-18T03:59:49.434Z,17.90
2023-01-18T04:00:50.070Z,17.89
2023-01-18T04:01:50.840Z,17.98
2023-01-18T04:02:51.626Z,17.87
2023-01-18T04:03:52.236Z,17.82
2023-01-18T04:04:55.135Z,17.85
2023-01-18T04:05:54.477Z,17.89
2023-01-18T04:06:55.072Z,17.85
2023-01-18T04:07:55.680Z,17.89
2023-01-18T04:08:56.268Z,17.82
2023-01-18T04:09:56.871Z,17.85
2023-01-18T04:10:57.463Z,17.83
2023-01-18T04:11:58.126Z,17.86
2023-01-18T04:12:59.071Z,17.87
2023-01-18T04:13:59.926Z,17.83
2023-01-18T04:15:00.524Z,17.90
2023-01-18T04:16:01.170Z,17.85
2023-01-18T04:17:01.787Z,17.94
2023-01-18T04:18:02.387Z,17.82
2023-01-18T04:19:02.991Z,17.82
2023-01-18T04:20:03.585Z,17.85
2023-01-18T04:21:04.178Z,17.85
2023-01-18T04:22:04.860Z,17.85
2023-01-18T04:23:05.443Z,17.89
2023-01-18T04:24:06.108Z,17.82
2023-01-18T04:25:06.705Z,17.89
2023-01-18T04:26:07.303Z,17.85
2023-01-18T04:27:07.899Z,17.82
2023-01-18T04:28:08.504Z,17.86
2023-01-18T04:29:09.147Z,17.82
2023-01-18T04:30:09.754Z,17.86
2023-01-18T04:31:10.380Z,17.86
2023-01-18T04:32:10.969Z,17.80
2023-01-18T04:33:11.562Z,17.80
2023-01-18T04:34:12.231Z,17.80
2023-01-18T04:35:12.902Z,17.78
2023-01-18T04:36:13.502Z,17.82
2023-01-18T04:37:14.092Z,17.74
2023-01-18T04:38:14.697Z,17.79
2023-01-18T04:39:16.091Z,17.78
2023-01-18T04:40:16.693Z,17.79
2023-01-18T04:41:17.287Z,17.78
2023-01-18T04:42:17.887Z,17.80
2023-01-18T04:43:18.480Z,17.78
2023-01-18T04:44:19.083Z,17.78
2023-01-18T04:45:19.725Z,17.80
2023-01-18T04:46:20.406Z,17.85
2023-01-18T04:47:21.011Z,17.78
2023-01-18T04:48:21.621Z,17.79
2023-01-18T04:49:22.355Z,17.68
2023-01-18T04:50:22.963Z,17.79
2023-01-18T04:51:23.551Z,17.76
2023-01-18T04:52:24.155Z,17.83
2023-01-18T04:53:24.752Z,17.80
2023-01-18T04:54:25.368Z,17.79
2023-01-18T04:55:26.014Z,17.79
2023-01-18T04:56:27.415Z,17.70
2023-01-18T04:57:28.005Z,17.68
2023-01-18T04:58:28.607Z,17.78
2023-01-18T04:59:29.204Z,17.68
2023-01-18T05:00:29.843Z,17.70
2023-01-18T05:01:30.537Z,17.68
2023-01-18T05:02:31.358Z,17.82
2023-01-18T05:03:31.961Z,17.70
2023-01-18T05:04:32.568Z,17.78
2023-01-18T05:05:33.156Z,17.82
2023-01-18T05:06:33.764Z,17.76
2023-01-18T05:07:34.362Z,17.76
2023-01-18T05:08:35.036Z,17.68
2023-01-18T05:09:35.811Z,17.67
2023-01-18T05:10:36.421Z,17.70
2023-01-18T05:11:37.088Z,17.71
2023-01-18T05:12:37.700Z,17.70
2023-01-18T05:13:38.292Z,17.76
2023-01-18T05:14:38.883Z,17.76
2023-01-18T05:15:39.482Z,17.71
2023-01-18T05:16:40.125Z,17.74
2023-01-18T05:17:40.760Z,17.74
2023-01-18T05:18:41.359Z,17.78
2023-01-18T05:19:42.012Z,17.71
2023-01-18T05:20:42.605Z,17.71
2023-01-18T05:21:43.196Z,17.67
2023-01-18T05:22:43.800Z,17.71
2023-01-18T05:23:44.395Z,17.70
2023-01-18T05:24:44.999Z,17.68
2023-01-18T05:25:45.598Z,17.70
2023-01-18T05:26:46.257Z,17.71
2023-01-18T05:27:46.852Z,17.71
2023-01-18T05:28:47.457Z,17.71
2023-01-18T05:29:48.052Z,17.72
2023-01-18T05:30:48.651Z,17.68
2023-01-18T05:31:49.288Z,17.68
2023-01-18T05:32:49.875Z,17.74
2023-01-18T05:33:50.471Z,17.68
2023-01-18T05:34:51.080Z,17.68
2023-01-18T05:35:51.672Z,17.67
2023-01-18T05:36:52.272Z,17.65
2023-01-18T05:37:52.871Z,17.65
2023-01-18T05:38:53.471Z,17.67
2023-01-18T05:39:54.136Z,17.72
2023-01-18T05:40:54.781Z,17.67
2023-01-18T05:41:55.399Z,17.67
2023-01-18T05:42:57.223Z,17.65
2023-01-18T05:43:57.987Z,17.65
2023-01-18T05:44:58.587Z,17.71
2023-01-18T05:45:59.251Z,17.67
2023-01-18T05:46:59.842Z,17.64
2023-01-18T05:48:00.447Z,17.67
2023-01-18T05:49:01.038Z,17.65
2023-01-18T05:50:01.682Z,17.67
2023-01-18T05:51:02.287Z,17.59
2023-01-18T05:52:02.877Z,17.65
2023-01-18T05:53:03.481Z,17.64
2023-01-18T05:54:04.074Z,17.65
2023-01-18T05:55:04.678Z,17.63
2023-01-18T05:56:05.268Z,17.63
2023-01-18T05:57:05.985Z,17.63
2023-01-18T05:58:06.580Z,17.67
2023-01-18T05:59:07.180Z,17.60
2023-01-18T06:00:07.772Z,17.64
2023-01-18T06:01:08.401Z,17.60
2023-01-18T06:02:09.089Z,17.56
2023-01-18T06:03:10.867Z,17.63
2023-01-18T06:04:11.351Z,17.60
2023-01-18T06:05:12.002Z,17.60
2023-01-18T06:06:12.649Z,17.56
2023-01-18T06:07:13.250Z,17.57
2023-01-18T06:08:13.845Z,17.56
2023-01-18T06:09:14.446Z,17.60
2023-01-18T06:10:15.041Z,17.60
2023-01-18T06:11:15.645Z,17.65
2023-01-18T06:12:16.239Z,17.63
2023-01-18T06:13:16.843Z,17.56
2023-01-18T06:14:17.436Z,17.57
2023-01-18T06:15:18.046Z,17.56
2023-01-18T06:16:18.643Z,17.59
2023-01-18T06:17:19.238Z,17.54
2023-01-18T06:18:19.828Z,17.60
2023-01-18T06:19:20.436Z,17.65
2023-01-18T06:20:21.026Z,17.57
2023-01-18T06:21:21.674Z,17.57
2023-01-18T06:22:22.272Z,17.57
2023-01-18T06:23:22.877Z,17.63
2023-01-18T06:24:23.467Z,17.63
2023-01-18T06:25:24.070Z,17.64
2023-01-18T06:26:24.726Z,17.65
2023-01-18T06:27:25.376Z,17.63
2023-01-18T06:28:25.972Z,17.56
2023-01-18T06:29:26.571Z,17.52
2023-01-18T06:30:28.011Z,17.65
2023-01-18T06:31:28.655Z,17.64
2023-01-18T06:32:30.100Z,17.60
2023-01-18T06:33:30.718Z,17.60
2023-01-18T06:34:31.303Z,17.60
2023-01-18T06:35:31.957Z,17.63
2023-01-18T06:36:32.548Z,17.60
2023-01-18T06:37:33.150Z,17.57
2023-01-18T06:38:33.795Z,17.52
2023-01-18T06:39:34.394Z,17.51
2023-01-18T06:40:34.997Z,17.56
2023-01-18T06:41:35.589Z,17.60
2023-01-18T06:42:36.181Z,17.57
2023-01-18T06:43:36.783Z,17.59
2023-01-18T06:44:37.451Z,17.57
2023-01-18T06:45:38.092Z,17.51
2023-01-18T06:46:38.730Z,17.48
2023-01-18T06:47:39.334Z,17.51
2023-01-18T06:48:39.925Z,17.51
2023-01-18T06:49:40.527Z,17.56
2023-01-18T06:50:41.121Z,17.60
2023-01-18T06:51:41.724Z,17.56
2023-01-18T06:52:42.316Z,17.54
2023-01-18T06:53:42.920Z,17.54
2023-01-18T06:54:43.513Z,17.57
2023-01-18T06:55:44.118Z,17.49
2023-01-18T06:56:44.710Z,17.54
2023-01-18T06:57:45.310Z,17.48
2023-01-18T06:58:45.903Z,17.49
2023-01-18T06:59:46.506Z,17.51
2023-01-18T07:00:48.009Z,17.57
2023-01-18T07:01:48.789Z,17.54
2023-01-18T07:02:49.467Z,17.54
2023-01-18T07:03:50.103Z,17.57
2023-01-18T07:04:50.731Z,17.56
2023-01-18T07:05:51.387Z,17.49
2023-01-18T07:06:51.983Z,17.49
2023-01-18T07:07:52.583Z,17.48
2023-01-18T07:08:53.179Z,17.48
2023-01-18T07:09:53.774Z,17.49
2023-01-18T07:10:54.412Z,17.45
2023-01-18T07:11:55.041Z,17.48
2023-01-18T07:12:55.792Z,17.48
2023-01-18T07:13:56.423Z,17.51
2023-01-18T07:14:57.027Z,17.49
2023-01-18T07:16:00.024Z,17.48
2023-01-18T07:16:58.315Z,17.45
2023-01-18T07:17:58.919Z,17.48
2023-01-18T07:18:59.596Z,17.48
2023-01-18T07:20:00.199Z,17.46
2023-01-18T07:21:00.792Z,17.41
2023-01-18T07:22:01.388Z,17.45
2023-01-18T07:23:01.993Z,17.45
2023-01-18T07:24:02.586Z,17.42
2023-01-18T07:25:03.195Z,17.39
2023-01-18T07:26:03.792Z,17.49
2023-01-18T07:27:04.386Z,17.51
2023-01-18T07:28:04.986Z,17.44
2023-01-18T07:29:05.735Z,17.46
2023-01-18T07:30:06.339Z,17.42
2023-01-18T07:31:06.932Z,17.48
2023-01-18T07:32:07.776Z,17.46
2023-01-18T07:33:08.419Z,17.46
2023-01-18T07:34:09.013Z,17.39
2023-01-18T07:35:09.615Z,17.44
2023-01-18T07:36:11.084Z,17.39
2023-01-18T07:37:11.721Z,17.46
2023-01-18T07:38:12.321Z,17.44
2023-01-18T07:39:13.868Z,17.44
2023-01-18T07:40:14.460Z,17.44
2023-01-18T07:41:15.061Z,17.44
2023-01-18T07:42:15.804Z,17.46
2023-01-18T07:43:16.408Z,17.33
2023-01-18T07:44:17.002Z,17.41
2023-01-18T07:45:17.602Z,17.46
2023-01-18T07:46:18.234Z,17.34
2023-01-18T07:47:18.839Z,17.44
2023-01-18T07:48:19.487Z,17.46
2023-01-18T07:49:20.089Z,17.44
2023-01-18T07:50:20.689Z,17.31
2023-01-18T07:51:21.287Z,17.44
2023-01-18T07:52:21.881Z,17.41
2023-01-18T07:53:22.546Z,17.42
2023-01-18T07:54:23.212Z,17.44
2023-01-18T07:55:23.860Z,17.39
2023-01-18T07:56:24.459Z,17.44
2023-01-18T07:57:25.057Z,17.45
2023-01-18T07:58:25.647Z,17.36
2023-01-18T07:59:26.252Z,17.44
2023-01-18T08:00:26.851Z,17.44
2023-01-18T08:01:27.587Z,17.41
2023-01-18T08:02:28.270Z,17.42
2023-01-18T08:03:28.879Z,17.45
2023-01-18T08:04:29.475Z,17.42
2023-01-18T08:05:30.073Z,17.45
2023-01-18T08:06:30.668Z,17.44
2023-01-18T08:07:31.271Z,17.46
2023-01-18T08:08:31.944Z,17.42
2023-01-18T08:09:32.549Z,17.45
2023-01-18T08:10:33.262Z,17.48
2023-01-18T08:11:33.864Z,17.44
2023-01-18T08:12:34.469Z,17.48
2023-01-18T08:13:35.095Z,17.42
2023-01-18T08:14:35.724Z,17.44
2023-01-18T08:15:36.364Z,17.46
2023-01-18T08:16:36.950Z,17.46
2023-01-18T08:17:37.553Z,17.42
2023-01-18T08:18:38.164Z,17.44
2023-01-18T08:19:38.773Z,17.44
2023-01-18T08:20:39.359Z,17.41
2023-01-18T08:21:39.960Z,17.41
2023-01-18T08:22:40.573Z,17.41
2023-01-18T08:23:41.166Z,17.45
2023-01-18T08:24:41.784Z,17.34
2023-01-18T08:25:42.409Z,17.41
2023-01-18T08:26:43.003Z,17.45
2023-01-18T08:27:43.603Z,17.36
2023-01-18T08:28:44.195Z,17.41
2023-01-18T08:29:44.800Z,17.48
2023-01-18T08:30:45.490Z,17.46
2023-01-18T08:31:46.138Z,17.36
2023-01-18T08:32:46.742Z,17.30
2023-01-18T08:33:47.346Z,17.42
2023-01-18T08:34:48.011Z,17.48
2023-01-18T08:35:48.619Z,17.30
2023-01-18T08:36:49.268Z,17.42
2023-01-18T08:37:49.875Z,17.45
2023-01-18T08:38:50.472Z,17.46
2023-01-18T08:39:51.069Z,17.39
2023-01-18T08:40:51.714Z,17.42
2023-01-18T08:41:52.321Z,17.44
2023-01-18T08:42:52.958Z,17.36
2023-01-18T08:43:53.609Z,17.38
2023-01-18T08:44:54.211Z,17.38
2023-01-18T08:45:54.809Z,17.36
2023-01-18T08:46:55.401Z,17.33
2023-01-18T08:47:55.998Z,17.36
2023-01-18T08:48:56.592Z,17.33
2023-01-18T08:49:57.243Z,17.29
2023-01-18T08:50:57.839Z,17.29
2023-01-18T08:51:58.440Z,17.29
2023-01-18T08:52:59.500Z,17.33
2023-01-18T08:54:00.304Z,17.31
2023-01-18T08:55:00.897Z,17.39
2023-01-18T08:56:01.536Z,17.26
2023-01-18T08:57:02.112Z,17.27
2023-01-18T08:58:02.714Z,17.31
2023-01-18T08:59:03.436Z,17.33
2023-01-18T09:00:04.018Z,17.29
2023-01-18T09:01:04.617Z,17.33
2023-01-18T09:02:05.261Z,17.34
2023-01-18T09:03:05.880Z,17.29
2023-01-18T09:04:06.518Z,17.26
2023-01-18T09:05:07.117Z,17.27
2023-01-18T09:06:07.717Z,17.26
2023-01-18T09:07:08.312Z,17.30
2023-01-18T09:08:08.915Z,17.29
2023-01-18T09:09:09.512Z,17.36
2023-01-18T09:10:10.166Z,17.31
2023-01-18T09:11:10.777Z,17.30
2023-01-18T09:12:11.375Z,17.45
2023-01-18T09:13:12.053Z,17.30
2023-01-18T09:14:12.639Z,17.26
2023-01-18T09:15:14.084Z,17.27
2023-01-18T09:16:14.697Z,17.30
2023-01-18T09:17:15.284Z,17.42
2023-01-18T09:18:15.892Z,17.34
2023-01-18T09:19:16.497Z,17.30
2023-01-18T09:20:18.851Z,17.34
2023-01-18T09:21:18.755Z,17.41
2023-01-18T09:22:19.419Z,17.41
2023-01-18T09:23:20.014Z,17.33
2023-01-18T09:24:20.623Z,17.30
2023-01-18T09:25:21.274Z,17.33
2023-01-18T09:26:21.875Z,17.29
2023-01-18T09:27:22.471Z,17.26
2023-01-18T09:28:23.073Z,17.23
2023-01-18T09:29:23.677Z,17.26
2023-01-18T09:30:24.271Z,17.36
2023-01-18T09:31:24.888Z,17.39
2023-01-18T09:32:25.558Z,17.30
2023-01-18T09:33:36.914Z,17.29
2023-01-18T09:34:27.785Z,17.26
2023-01-18T09:35:28.409Z,17.26
2023-01-18T09:36:29.000Z,17.30
2023-01-18T09:37:29.589Z,17.29
2023-01-18T09:38:30.191Z,17.31
2023-01-18T09:39:40.222Z,17.23
2023-01-18T09:40:32.377Z,17.27
2023-01-18T09:41:32.970Z,17.31
2023-01-18T09:42:33.573Z,17.31
2023-01-18T09:43:34.315Z,17.30
2023-01-18T09:44:34.919Z,17.29
2023-01-18T09:45:35.530Z,17.39
2023-01-18T09:46:36.241Z,17.31
2023-01-18T09:47:36.893Z,17.36
2023-01-18T09:48:37.495Z,17.31
2023-01-18T09:49:38.092Z,17.38
2023-01-18T09:50:38.694Z,17.36
2023-01-18T09:51:39.491Z,17.31
2023-01-18T09:52:40.936Z,17.34
2023-01-18T09:53:41.530Z,17.31
2023-01-18T09:54:42.132Z,17.24
2023-01-18T09:55:42.727Z,17.24
2023-01-18T09:56:43.327Z,17.39
2023-01-18T09:57:43.922Z,17.31
2023-01-18T09:58:44.522Z,17.34
2023-01-18T09:59:45.115Z,17.27
2023-01-18T10:00:46.580Z,17.27
2023-01-18T10:01:47.370Z,17.30
2023-01-18T10:02:48.162Z,17.29
2023-01-18T10:03:48.760Z,17.31
2023-01-18T10:04:49.348Z,17.36
2023-01-18T10:05:49.960Z,17.33
2023-01-18T10:06:50.637Z,17.36
2023-01-18T10:07:51.231Z,17.26
2023-01-18T10:08:51.832Z,17.29
2023-01-18T10:09:52.429Z,17.33
2023-01-18T10:10:53.029Z,17.30
2023-01-18T10:11:53.623Z,17.29
2023-01-18T10:12:54.225Z,17.27
2023-01-18T10:13:54.949Z,17.33
2023-01-18T10:14:55.615Z,17.26
2023-01-18T10:15:56.227Z,17.33
2023-01-18T10:16:56.820Z,17.31
2023-01-18T10:17:57.420Z,17.36
2023-01-18T10:18:58.871Z,17.31
2023-01-18T10:19:59.464Z,17.31
2023-01-18T10:21:00.094Z,17.31
2023-01-18T10:22:00.730Z,17.31
2023-01-18T10:23:01.495Z,17.33
2023-01-18T10:24:02.133Z,17.33
2023-01-18T10:25:02.727Z,17.30
2023-01-18T10:26:03.327Z,17.29
2023-01-18T10:27:03.923Z,17.29
2023-01-18T10:28:04.570Z,17.39
2023-01-18T10:29:05.163Z,17.33
2023-01-18T10:30:05.751Z,17.39
2023-01-18T10:31:06.442Z,17.33
2023-01-18T10:32:07.016Z,17.31
2023-01-18T10:33:07.621Z,17.41
2023-01-18T10:34:08.213Z,17.34
2023-01-18T10:35:08.815Z,17.38
2023-01-18T10:36:11.574Z,17.39
2023-01-18T10:37:10.082Z,17.39
2023-01-18T10:38:10.664Z,17.38
2023-01-18T10:39:11.264Z,17.33
2023-01-18T10:40:11.859Z,17.39
2023-01-18T10:41:12.459Z,17.41
2023-01-18T10:42:13.051Z,17.42
2023-01-18T10:43:13.656Z,17.39
2023-01-18T10:44:14.250Z,17.44
2023-01-18T10:45:15.005Z,17.45
2023-01-18T10:46:15.599Z,17.46
2023-01-18T10:47:17.670Z,17.41
2023-01-18T10:48:17.794Z,17.41
2023-01-18T10:49:18.395Z,17.45
2023-01-18T10:50:18.996Z,17.41
2023-01-18T10:51:20.401Z,17.42
2023-01-18T10:52:20.990Z,17.48
2023-01-18T10:53:22.457Z,17.42
2023-01-18T10:54:23.905Z,17.44
2023-01-18T10:55:24.505Z,17.46
2023-01-18T10:56:25.341Z,17.41
2023-01-18T10:57:25.959Z,17.41
2023-01-18T10:58:26.555Z,17.34
2023-01-18T10:59:27.154Z,17.44
2023-01-18T11:00:27.810Z,17.45
2023-01-18T11:01:28.612Z,17.44
2023-01-18T11:02:29.311Z,17.44
2023-01-18T11:03:29.928Z,17.46
2023-01-18T11:04:30.527Z,17.44
2023-01-18T11:05:31.138Z,17.46
2023-01-18T11:06:31.803Z,17.45
2023-01-18T11:07:32.471Z,17.44
2023-01-18T11:08:33.121Z,17.44
2023-01-18T11:09:33.723Z,17.42
2023-01-18T11:10:34.361Z,17.48
2023-01-18T11:11:34.964Z,17.41
2023-01-18T11:12:35.557Z,17.39
2023-01-18T11:13:36.159Z,17.41
2023-01-18T11:14:36.755Z,17.44
2023-01-18T11:15:37.359Z,17.45
2023-01-18T11:16:37.949Z,17.45
2023-01-18T11:17:38.553Z,17.46
2023-01-18T11:18:39.143Z,17.45
2023-01-18T11:19:39.745Z,17.46
2023-01-18T11:20:40.339Z,17.48
2023-01-18T11:21:40.975Z,17.42
2023-01-18T11:22:41.660Z,17.46
2023-01-18T11:23:43.806Z,17.45
2023-01-18T11:24:43.853Z,17.46
2023-01-18T11:25:44.512Z,17.45
2023-01-18T11:26:45.114Z,17.45
2023-01-18T11:27:45.787Z,17.45
2023-01-18T11:28:46.394Z,17.45
2023-01-18T11:29:46.978Z,17.45
2023-01-18T11:30:47.828Z,17.45
2023-01-18T11:31:48.477Z,17.44
2023-01-18T11:32:49.082Z,17.44
2023-01-18T11:33:49.676Z,17.48
2023-01-18T11:34:50.281Z,17.46
2023-01-18T11:35:50.871Z,17.42
2023-01-18T11:36:51.470Z,17.42
2023-01-18T11:37:52.067Z,17.44
2023-01-18T11:38:52.668Z,17.41
2023-01-18T11:39:53.261Z,17.42
2023-01-18T11:40:53.861Z,17.36
2023-01-18T11:41:54.456Z,17.41
2023-01-18T11:42:55.060Z,17.41
2023-01-18T11:43:55.655Z,17.46
2023-01-18T11:44:56.254Z,17.45
2023-01-18T11:45:56.875Z,17.44
2023-01-18T11:46:58.323Z,17.42
2023-01-18T11:47:59.300Z,17.38
2023-01-18T11:49:00.102Z,17.46
2023-01-18T11:50:05.643Z,17.42
2023-01-18T11:51:02.276Z,17.48
2023-01-18T11:52:02.880Z,17.41
2023-01-18T11:53:03.487Z,17.45
2023-01-18T11:54:04.073Z,17.44
2023-01-18T11:55:04.669Z,17.41
2023-01-18T11:56:05.258Z,17.39
2023-01-18T11:57:05.912Z,17.45
2023-01-18T11:58:06.509Z,17.41
2023-01-18T11:59:07.111Z,17.41
2023-01-18T12:00:09.635Z,17.33
2023-01-18T12:01:10.187Z,17.44
2023-01-18T12:02:10.860Z,17.39
2023-01-18T12:03:11.615Z,17.44
2023-01-18T12:04:12.244Z,17.42
2023-01-18T12:05:12.879Z,17.42
2023-01-18T12:06:13.613Z,17.42
2023-01-18T12:07:14.210Z,17.39
2023-01-18T12:08:14.810Z,17.39
2023-01-18T12:09:15.474Z,17.44
2023-01-18T12:10:16.121Z,17.44
2023-01-18T12:11:16.727Z,17.42
2023-01-18T12:12:19.747Z,17.41
2023-01-18T12:13:18.887Z,17.42
2023-01-18T12:14:19.481Z,17.44
2023-01-18T12:15:20.088Z,17.45
2023-01-18T12:16:20.785Z,17.42
2023-01-18T12:17:22.224Z,17.34
2023-01-18T12:18:22.819Z,17.41
2023-01-18T12:19:23.420Z,17.44
2023-01-18T12:20:24.019Z,17.45
2023-01-18T12:21:24.616Z,17.41
2023-01-18T12:22:25.221Z,17.41
2023-01-18T12:23:25.808Z,17.42
2023-01-18T12:24:26.404Z,17.44
2023-01-18T12:25:27.006Z,17.45
2023-01-18T12:26:27.598Z,17.39
2023-01-18T12:27:28.206Z,17.41
2023-01-18T12:28:28.796Z,17.41
2023-01-18T12:29:29.395Z,17.42
2023-01-18T12:30:30.903Z,17.36
2023-01-18T12:31:31.495Z,17.46
2023-01-18T12:32:33.090Z,17.33
2023-01-18T12:33:43.432Z,17.42
2023-01-18T12:34:36.130Z,17.42
2023-01-18T12:35:37.581Z,17.45
2023-01-18T12:36:38.179Z,17.33
2023-01-18T12:37:39.582Z,17.31
2023-01-18T12:38:41.101Z,17.44
2023-01-18T12:39:41.696Z,17.29
2023-01-18T12:40:42.286Z,17.33
2023-01-18T12:41:42.890Z,17.39
2023-01-18T12:42:43.614Z,17.38
2023-01-18T12:43:44.210Z,17.36
2023-01-18T12:44:44.806Z,17.41
2023-01-18T12:45:45.442Z,17.38
2023-01-18T12:46:46.087Z,17.34
2023-01-18T12:47:46.689Z,17.30
2023-01-18T12:48:47.284Z,17.29
2023-01-18T12:49:47.887Z,17.38
2023-01-18T12:50:48.486Z,17.41
2023-01-18T12:51:49.149Z,17.36
2023-01-18T12:52:49.745Z,17.33
2023-01-18T12:53:50.345Z,17.29
2023-01-18T12:54:50.941Z,17.34
2023-01-18T12:55:51.541Z,17.34
2023-01-18T12:56:52.136Z,17.31
2023-01-18T12:57:52.803Z,17.33
2023-01-18T12:58:53.404Z,17.33
2023-01-18T12:59:54.099Z,17.36
2023-01-18T13:00:54.737Z,17.30